This is the latest recevied weather packets stored in our database for station/object F5SHG-3. If no packets are shown the sender has not sent any weather packets the latest 1 day(s).
| Time | Temp. | Humidity | Pressure | Rain* | Wind** | Luminosity | Snow |
|---|---|---|---|---|---|---|---|
| 1778089510 | 13.89° C | 64% | 1012.1 hPa | - | - | - | - |
| 1778086810 | 14.44° C | 63% | 1011.9 hPa | - | - | - | - |
| 1778085910 | 13.89° C | 64% | 1011.8 hPa | - | - | - | - |
| 1778085010 | 13.89° C | 66% | 1011.8 hPa | - | - | - | - |
| 1778084110 | 13.89° C | 66% | 1011.8 hPa | - | - | - | - |
| 1778082313 | 15.56° C | 62% | 1011.6 hPa | - | - | - | - |
| 1778081413 | 16.67° C | 52% | 1011.5 hPa | - | - | - | - |
| 1778080513 | 16.67° C | 51% | 1011.5 hPa | - | - | - | - |
| 1778079613 | 17.22° C | 51% | 1011.5 hPa | - | - | - | - |
| 1778078713 | 17.22° C | 50% | 1011.5 hPa | - | - | - | - |
| 1778069712 | 13.33° C | 72% | 1011.8 hPa | - | - | - | - |
| 1778068812 | 13.89° C | 74% | 1011.7 hPa | - | - | - | - |
| 1778067912 | 13.33° C | 69% | 1012 hPa | - | - | - | - |
| 1778067012 | 15° C | 59% | 1012 hPa | - | - | - | - |
| 1778066112 | 15° C | 56% | 1011.9 hPa | - | - | - | - |
| 1778065212 | 15.56° C | 54% | 1012 hPa | - | - | - | - |
| 1778058011 | 11.11° C | 71% | 1011.9 hPa | - | - | - | - |
| 1778057111 | 11.11° C | 72% | 1011.8 hPa | - | - | - | - |
| 1778056211 | 11.11° C | 73% | 1011.7 hPa | - | - | - | - |
| 1778055311 | 10.56° C | 73% | 1011.6 hPa | - | - | - | - |
| 1778054411 | 10.56° C | 74% | 1011.6 hPa | - | - | - | - |
| 1778053511 | 10.56° C | 75% | 1011.6 hPa | - | - | - | - |
| 1778052611 | 10.56° C | 76% | 1011.6 hPa | - | - | - | - |
| 1778051711 | 10° C | 77% | 1011.6 hPa | - | - | - | - |
| 1778044510 | 9.44° C | 77% | 1011 hPa | - | - | - | - |
* Rain since midnight (hover to see other rain measurements)
** Current wind speed in m/s (hover to see current wind gust speed)